Dornbirn, Austria

4:14 PM CEST on May 22, 2015 (GMT +0200)
Altenrhein | | Change Station
CLOSE
Current Station
Airport
Location: Saint Gallen-Altenrhein,
Elevation: 1306 ft
Nearby Weather Stations

Elev 1306 ft 47.49 °N, 9.56 °E | Updated 24 minutes ago

Mostly Cloudy
Mostly Cloudy
57 °F
Feels Like 57 °F
N
6
Wind Variable Wind from North

Today
High -- | Low -- °F
--% Chance of Precip.
Yesterday
High -- | Low -- °F
Precip. -- in
5:37 AM 8:59 PM
Waxing Crescent, 21% visible
Pressure 30.21 in
Visibility 6.2 miles
Clouds Few 4500 ft
Mostly Cloudy 8000 ft
Dew Point 43 °F
Humidity 59%
Rainfall 0.00 in
Snow Depth Not available.
UV 4 out of 12
Pollen Not available.
Air Quality Not available.
Flu Activity Not available.
METAR LSZR 221350Z 36005KT 310V040 9999 FEW045 BKN080 14/06 Q1023 NOSIG RMK K

More Conditions Fewer Conditions

Pressure 30.21 in
Visibility 6.2 miles
Clouds Few 4500 ft
Mostly Cloudy 8000 ft
Dew Point 43 °F
Humidity 59%
Rainfall 0.00 in
Snow Depth Not available.
UV 4 out of 12
Pollen Not available.
Air Quality Not available.
Flu Activity Not available.
METAR LSZR 221350Z 36005KT 310V040 9999 FEW045 BKN080 14/06 Q1023 NOSIG RMK K

More Conditions Fewer Conditions

10-Day Weather Forecast

Almanac

Astronomy

May. 22, 2015 Rise Set
Actual Time
Civil Twilight
Nautical Twilight
Astronomical Twilight
Moon
Length of Visible Light
Length of Day
Tomorrow will be .
, % of the Moon is Illuminated

Today's Extremes

Country Highs Country Lows

Community

WunderPhotos

Upload Photos

1,823,225 photos uploaded!

WunderBlogs® & News

Nearby

Air Quality

  Air Quality AQ Index Pollutant
Not available.

Snow Depth

Station Depth Elevation

Earthquake Activity

City Distance Mag. Time & Date
Minimum magnitude displayed is 2.5.

Coastal Water Temperatures

Place Temperature

Stations

Nearby Weather Stations

Station Location Temp. Windchill Dew Point Humidity Wind Precip. Elev Updated Type